B42 EFKU-EFKU

Flight info

Callsign B42
Flight time 1h 22m
Altitude 10000
Route V04C
Aircraft HAWK/M-SDGIRY/C

Departure

Time 2026-05-05 15:24
Airport Kuopio Airport (EFKU)

Arrival

Time 2026-05-05 16:46
Airport Kuopio Airport (EFKU)
Time Latitude Longitude Altitude Speed Heading
2026-05-05 14:59 63.00361 27.79099 316 ft 0 kts 68°
2026-05-05 15:18 63.00363 27.79109 315 ft 3 kts 68°
2026-05-05 15:18 63.00364 27.79142 315 ft 3 kts 129°
2026-05-05 15:18 63.00337 27.79170 314 ft 6 kts 156°
2026-05-05 15:19 63.00282 27.79222 313 ft 11 kts 156°
2026-05-05 15:19 63.00216 27.79286 312 ft 7 kts 156°
2026-05-05 15:19 63.00198 27.79363 312 ft 8 kts 75°
2026-05-05 15:19 63.00225 27.79506 309 ft 11 kts 68°
2026-05-05 15:20 63.00232 27.79632 309 ft 6 kts 126°
2026-05-05 15:20 63.00212 27.79686 310 ft 4 kts 129°
2026-05-05 15:20 63.00191 27.79751 310 ft 7 kts 128°
2026-05-05 15:20 63.00154 27.79838 312 ft 7 kts 150°
2026-05-05 15:21 63.00100 27.79890 315 ft 10 kts 157°
2026-05-05 15:21 63.00027 27.79957 317 ft 13 kts 158°
2026-05-05 15:21 62.99961 27.80070 317 ft 14 kts 107°
2026-05-05 15:21 63.00015 27.80232 312 ft 17 kts
2026-05-05 15:22 63.00115 27.80257 307 ft 10 kts
2026-05-05 15:22 63.00186 27.80262 306 ft 9 kts 343°
2026-05-05 15:22 63.00200 27.80250 306 ft 0 kts 337°
2026-05-05 15:23 63.00246 27.80209 306 ft 25 kts 336°
2026-05-05 15:23 63.00533 27.79923 309 ft 64 kts 337°
2026-05-05 15:23 63.01052 27.79462 328 ft 97 kts 340°
2026-05-05 15:23 63.01769 27.78800 333 ft 121 kts 330°
2026-05-05 15:24 63.02580 27.78112 558 ft 131 kts 330°
2026-05-05 15:24 63.03501 27.77608 907 ft 148 kts 355°
2026-05-05 15:24 63.04576 27.78335 1233 ft 180 kts 27°
2026-05-05 15:24 63.05663 27.79938 1784 ft 198 kts 28°
2026-05-05 15:25 63.06900 27.81598 2422 ft 215 kts 23°
2026-05-05 15:25 63.08244 27.83173 3320 ft 222 kts 21°
2026-05-05 15:25 63.09646 27.84636 4327 ft 223 kts 19°
2026-05-05 15:25 63.11097 27.86023 5392 ft 241 kts 17°
2026-05-05 15:26 63.12747 27.87525 6712 ft 266 kts 17°
2026-05-05 15:26 63.14540 27.89087 8120 ft 286 kts 16°
2026-05-05 15:26 63.16444 27.90667 9595 ft 305 kts 15°
2026-05-05 15:26 63.18586 27.92358 10040 ft 339 kts 15°
2026-05-05 15:27 63.20767 27.94098 10090 ft 327 kts 16°
2026-05-05 15:27 63.22883 27.95895 10014 ft 326 kts 16°
2026-05-05 15:27 63.24985 27.97748 10056 ft 324 kts 18°
2026-05-05 15:27 63.27060 27.99669 10092 ft 322 kts 18°
2026-05-05 15:28 63.29133 28.01615 10004 ft 325 kts 19°
2026-05-05 15:28 63.31211 28.03590 10027 ft 323 kts 18°
2026-05-05 15:28 63.33252 28.05497 10078 ft 321 kts 18°
2026-05-05 15:28 63.35345 28.07415 9541 ft 337 kts 18°
2026-05-05 15:29 63.37482 28.09398 10206 ft 318 kts 19°
2026-05-05 15:29 63.39450 28.11360 12536 ft 305 kts 20°
2026-05-05 15:29 63.41346 28.13396 14624 ft 303 kts 21°
2026-05-05 15:29 63.43212 28.15538 16417 ft 299 kts 22°
2026-05-05 15:30 63.45030 28.17736 18123 ft 294 kts 22°
2026-05-05 15:30 63.46859 28.19984 19121 ft 311 kts 21°
2026-05-05 15:30 63.48822 28.22411 19859 ft 333 kts 21°
2026-05-05 15:30 63.50914 28.24996 20618 ft 355 kts 20°
2026-05-05 15:31 63.53149 28.27706 21438 ft 373 kts 19°
2026-05-05 15:31 63.55448 28.30526 22608 ft 381 kts 19°
2026-05-05 15:31 63.57777 28.33428 23680 ft 386 kts 18°
2026-05-05 15:31 63.60166 28.36401 24431 ft 400 kts 18°
2026-05-05 15:32 63.62656 28.39422 25145 ft 413 kts 18°
2026-05-05 15:32 63.65215 28.42485 26099 ft 418 kts 18°
2026-05-05 15:32 63.67778 28.45563 27295 ft 416 kts 18°
2026-05-05 15:32 63.70323 28.48667 28419 ft 418 kts 18°
2026-05-05 15:33 63.72907 28.51854 29179 ft 429 kts 18°
2026-05-05 15:33 63.75585 28.55138 29656 ft 448 kts 19°
2026-05-05 15:33 63.78352 28.58499 30480 ft 447 kts 20°
2026-05-05 15:33 63.81025 28.61757 32070 ft 426 kts 20°
2026-05-05 15:34 63.83626 28.64889 33148 ft 426 kts 21°
2026-05-05 15:34 63.86302 28.68052 33418 ft 443 kts 21°
2026-05-05 15:34 63.89117 28.71333 33359 ft 468 kts 21°
2026-05-05 15:34 63.92071 28.74718 33619 ft 482 kts 21°
2026-05-05 15:35 63.95117 28.78081 33639 ft 488 kts 20°
2026-05-05 15:35 64.01279 28.84358 33685 ft 488 kts 17°
2026-05-05 15:36 64.07442 28.90036 33658 ft 492 kts 16°
2026-05-05 15:36 64.13876 28.95063 33803 ft 483 kts
2026-05-05 15:36 64.17112 28.96890 34078 ft 476 kts
2026-05-05 15:37 64.20351 28.98545 33999 ft 476 kts
2026-05-05 15:37 64.23566 28.99909 33850 ft 463 kts
2026-05-05 15:37 64.26708 29.00903 33700 ft 449 kts
2026-05-05 15:37 64.29763 29.01720 33634 ft 435 kts 359°
2026-05-05 15:38 64.32721 29.02423 33637 ft 420 kts 358°
2026-05-05 15:38 64.35585 29.03040 33635 ft 407 kts 358°
2026-05-05 15:38 64.38378 29.03608 33564 ft 397 kts 358°
2026-05-05 15:38 64.41086 29.04099 33582 ft 385 kts 357°
2026-05-05 15:39 64.43720 29.04651 33585 ft 377 kts
2026-05-05 15:39 64.46140 29.06967 33538 ft 384 kts 36°
2026-05-05 15:39 64.47687 29.11934 33407 ft 386 kts 72°
2026-05-05 15:39 64.47901 29.18159 33360 ft 397 kts 108°
2026-05-05 15:40 64.46694 29.23851 33384 ft 398 kts 139°
2026-05-05 15:40 64.44514 29.27434 33491 ft 372 kts 166°
2026-05-05 15:40 64.42125 29.29481 33563 ft 358 kts 171°
2026-05-05 15:40 64.39790 29.31135 33621 ft 344 kts 174°
2026-05-05 15:41 64.37510 29.32488 34334 ft 338 kts 175°
2026-05-05 15:41 64.35151 29.33739 34452 ft 356 kts 176°
2026-05-05 15:41 64.32711 29.34872 34516 ft 361 kts 177°
2026-05-05 15:42 64.27681 29.36784 34566 ft 376 kts 179°
2026-05-05 15:42 64.22394 29.38394 34591 ft 388 kts 181°
2026-05-05 15:43 64.16945 29.39742 34551 ft 399 kts 182°
2026-05-05 15:43 64.11367 29.40775 34611 ft 406 kts 183°
2026-05-05 15:44 64.05679 29.41563 34616 ft 414 kts 184°
2026-05-05 15:44 63.99805 29.42158 34651 ft 423 kts 185°
2026-05-05 15:45 63.94009 29.42139 35501 ft 402 kts 199°
2026-05-05 15:45 63.91323 29.40220 35660 ft 408 kts 207°
2026-05-05 15:45 63.88862 29.37251 35653 ft 395 kts 218°
2026-05-05 15:46 63.84466 29.29853 35663 ft 394 kts 221°
2026-05-05 15:46 63.80166 29.22180 35716 ft 393 kts 222°
2026-05-05 15:47 63.75967 29.14326 35706 ft 391 kts 224°
2026-05-05 15:47 63.71851 29.06225 36152 ft 396 kts 226°
2026-05-05 15:47 63.70127 29.01438 36402 ft 406 kts 239°
2026-05-05 15:48 63.68828 28.95614 36657 ft 414 kts 245°
2026-05-05 15:48 63.66433 28.83877 36544 ft 411 kts 245°
2026-05-05 15:49 63.64134 28.72301 36510 ft 401 kts 246°
2026-05-05 15:49 63.61914 28.60911 36518 ft 396 kts 246°
2026-05-05 15:50 63.59729 28.49629 36537 ft 393 kts 246°
2026-05-05 15:50 63.57561 28.38392 36576 ft 391 kts 246°
2026-05-05 15:50 63.56479 28.32760 36979 ft 397 kts 246°
2026-05-05 15:51 63.55376 28.27014 37362 ft 405 kts 246°
2026-05-05 15:51 63.54261 28.21142 37678 ft 413 kts 247°
2026-05-05 15:51 63.53146 28.15182 37637 ft 413 kts 247°
2026-05-05 15:52 63.51357 28.05402 37611 ft 406 kts 248°
2026-05-05 15:52 63.50303 27.99551 37479 ft 404 kts 248°
2026-05-05 15:52 63.49264 27.93723 37493 ft 401 kts 248°
2026-05-05 15:53 63.47230 27.82213 37565 ft 397 kts 248°
2026-05-05 15:53 63.45211 27.70756 37554 ft 396 kts 248°
2026-05-05 15:53 63.44939 27.64724 37572 ft 408 kts 282°
2026-05-05 15:54 63.46656 27.59474 37602 ft 447 kts 321°
2026-05-05 15:54 63.49712 27.57382 37630 ft 486 kts 357°
2026-05-05 15:54 63.52979 27.59793 37625 ft 515 kts 35°
2026-05-05 15:54 63.55528 27.65275 38733 ft 493 kts 43°
2026-05-05 15:55 63.57925 27.70734 39384 ft 486 kts 44°
2026-05-05 15:55 63.60271 27.76115 39710 ft 480 kts 44°
2026-05-05 15:55 63.62596 27.81427 39713 ft 478 kts 44°
2026-05-05 15:56 63.67245 27.92203 39636 ft 480 kts 44°
2026-05-05 15:56 63.71839 28.02957 39648 ft 478 kts 44°
2026-05-05 15:57 63.76443 28.13797 39624 ft 478 kts 44°
2026-05-05 15:57 63.78747 28.19242 39818 ft 482 kts 44°
2026-05-05 15:57 63.81075 28.24756 40259 ft 486 kts 45°
2026-05-05 15:57 63.83419 28.30342 40515 ft 495 kts 45°
2026-05-05 15:58 63.85794 28.36050 40566 ft 499 kts 45°
2026-05-05 15:58 63.90488 28.47461 40580 ft 490 kts 45°
2026-05-05 15:59 63.95106 28.58768 40596 ft 485 kts 45°
2026-05-05 15:59 63.99688 28.70000 40584 ft 483 kts 45°
2026-05-05 16:00 64.04263 28.81215 40593 ft 482 kts 45°
2026-05-05 16:00 64.08819 28.92416 40819 ft 478 kts 45°
2026-05-05 16:00 64.11077 28.97971 41446 ft 478 kts 45°
2026-05-05 16:01 64.13346 29.03550 41941 ft 480 kts 46°
2026-05-05 16:01 64.15629 29.09166 42279 ft 485 kts 46°
2026-05-05 16:01 64.17942 29.14872 42502 ft 492 kts 46°
2026-05-05 16:02 64.21821 29.27822 42469 ft 504 kts 80°
2026-05-05 16:02 64.21690 29.35615 42419 ft 496 kts 112°
2026-05-05 16:02 64.19958 29.42274 42367 ft 483 kts 142°
2026-05-05 16:02 64.17080 29.45589 42241 ft 458 kts 182°
2026-05-05 16:03 64.14164 29.43735 42190 ft 434 kts 222°
2026-05-05 16:03 64.12202 29.38562 42473 ft 430 kts 232°
2026-05-05 16:03 64.10347 29.33207 42636 ft 429 kts 232°
2026-05-05 16:04 64.06694 29.22652 42575 ft 418 kts 233°
2026-05-05 16:04 64.03168 29.12272 42558 ft 410 kts 233°
2026-05-05 16:05 63.99717 29.02011 42552 ft 405 kts 233°
2026-05-05 16:05 63.96324 28.91843 42524 ft 402 kts 233°
2026-05-05 16:06 63.92978 28.81749 42556 ft 397 kts 234°
2026-05-05 16:06 63.89706 28.71810 42563 ft 394 kts 234°
2026-05-05 16:07 63.86433 28.61762 42776 ft 400 kts 234°
2026-05-05 16:07 63.84777 28.56616 43071 ft 406 kts 234°
2026-05-05 16:07 63.83113 28.51416 43498 ft 409 kts 234°
2026-05-05 16:07 63.81447 28.46178 43854 ft 412 kts 234°
2026-05-05 16:08 63.79768 28.40868 44083 ft 417 kts 235°
2026-05-05 16:08 63.78296 28.35145 44051 ft 426 kts 247°
2026-05-05 16:08 63.77315 28.28846 44469 ft 423 kts 250°
2026-05-05 16:08 63.76368 28.22546 44606 ft 423 kts 250°
2026-05-05 16:09 63.75435 28.16272 44587 ft 419 kts 251°
2026-05-05 16:09 63.73616 28.03897 44562 ft 412 kts 251°
2026-05-05 16:10 63.71828 27.91711 44544 ft 406 kts 251°
2026-05-05 16:10 63.70059 27.79762 44441 ft 403 kts 250°
2026-05-05 16:11 63.68287 27.67858 44460 ft 398 kts 250°
2026-05-05 16:11 63.64934 27.51210 44420 ft 399 kts 213°
2026-05-05 16:12 63.62264 27.49396 44494 ft 414 kts 183°
2026-05-05 16:12 63.56913 27.54882 44624 ft 451 kts 140°
2026-05-05 16:13 63.55256 27.75194 44690 ft 471 kts 70°
2026-05-05 16:13 63.58231 27.88194 44624 ft 467 kts 61°
2026-05-05 16:14 63.64593 28.13349 44559 ft 459 kts 60°
2026-05-05 16:15 63.70910 28.37831 44359 ft 429 kts 60°
2026-05-05 16:16 63.73874 28.49267 40481 ft 422 kts 59°
2026-05-05 16:16 63.76811 28.60403 36657 ft 418 kts 58°
2026-05-05 16:17 63.79951 28.71891 34762 ft 429 kts 56°
2026-05-05 16:17 63.81572 28.77533 34174 ft 427 kts 55°
2026-05-05 16:18 63.84947 28.89014 33039 ft 457 kts 53°
2026-05-05 16:18 63.86783 28.95017 32867 ft 471 kts 52°
2026-05-05 16:18 63.90655 29.07366 32833 ft 485 kts 52°
2026-05-05 16:19 63.92653 29.13659 32629 ft 496 kts 52°
2026-05-05 16:19 63.98880 29.32839 32774 ft 505 kts 51°
2026-05-05 16:20 64.03131 29.45543 32667 ft 510 kts 50°
2026-05-05 16:20 64.07474 29.58353 32632 ft 511 kts 50°
2026-05-05 16:22 64.19546 29.85814 32537 ft 469 kts 351°
2026-05-05 16:22 64.24681 29.79117 31637 ft 426 kts 297°
2026-05-05 16:23 64.26027 29.66686 31768 ft 392 kts 265°
2026-05-05 16:23 64.23703 29.49119 31701 ft 385 kts 246°
2026-05-05 16:24 64.21453 29.38034 31709 ft 383 kts 245°
2026-05-05 16:25 64.18010 29.21477 31677 ft 383 kts 245°
2026-05-05 16:25 64.14577 29.04982 30985 ft 379 kts 245°
2026-05-05 16:26 64.12246 28.94685 30730 ft 363 kts 240°
2026-05-05 16:26 64.09553 28.84768 30718 ft 371 kts 240°
2026-05-05 16:27 64.06772 28.74726 30672 ft 377 kts 239°
2026-05-05 16:27 64.03966 28.64647 30739 ft 374 kts 240°
2026-05-05 16:28 64.01220 28.54617 30763 ft 377 kts 240°
2026-05-05 16:28 63.98465 28.44367 30714 ft 381 kts 240°
2026-05-05 16:29 63.95710 28.34012 30531 ft 385 kts 241°
2026-05-05 16:29 63.94331 28.28763 30361 ft 387 kts 241°
2026-05-05 16:29 63.92943 28.23427 30351 ft 385 kts 241°
2026-05-05 16:30 63.90263 28.13037 30484 ft 380 kts 241°
2026-05-05 16:30 63.88788 28.08099 30702 ft 378 kts 234°
2026-05-05 16:30 63.86940 28.03791 30687 ft 385 kts 226°
2026-05-05 16:31 63.84794 28.00065 30529 ft 392 kts 220°
2026-05-05 16:31 63.82470 27.96815 30632 ft 393 kts 214°
2026-05-05 16:31 63.79988 27.94368 31172 ft 387 kts 207°
2026-05-05 16:31 63.77335 27.92999 31201 ft 402 kts 195°
2026-05-05 16:32 63.74436 27.92939 30427 ft 433 kts 183°
2026-05-05 16:32 63.71498 27.94212 29648 ft 424 kts 178°
2026-05-05 16:32 63.68692 27.95857 29037 ft 409 kts 174°
2026-05-05 16:32 63.66035 27.97700 28411 ft 392 kts 174°
2026-05-05 16:33 63.63466 27.99546 27678 ft 379 kts 175°
2026-05-05 16:33 63.60965 28.00979 26878 ft 365 kts 179°
2026-05-05 16:33 63.58513 28.02054 26066 ft 351 kts 183°
2026-05-05 16:33 63.56144 28.02774 25504 ft 334 kts 188°
2026-05-05 16:34 63.53893 28.03281 24989 ft 320 kts 188°
2026-05-05 16:34 63.51700 28.03694 24234 ft 313 kts 190°
2026-05-05 16:34 63.49563 28.03975 23718 ft 301 kts 192°
2026-05-05 16:34 63.47527 28.04337 23160 ft 294 kts 191°
2026-05-05 16:35 63.45475 28.04677 22371 ft 288 kts 192°
2026-05-05 16:35 63.43531 28.04907 21817 ft 279 kts 191°
2026-05-05 16:35 63.41586 28.05111 21228 ft 273 kts 191°
2026-05-05 16:35 63.39726 28.05265 20657 ft 268 kts 191°
2026-05-05 16:36 63.37868 28.05323 20038 ft 269 kts 191°
2026-05-05 16:36 63.35914 28.05335 19630 ft 293 kts 190°
2026-05-05 16:36 63.33783 28.05292 19299 ft 315 kts 189°
2026-05-05 16:36 63.31533 28.05202 18948 ft 334 kts 189°
2026-05-05 16:37 63.29186 28.05060 18359 ft 341 kts 188°
2026-05-05 16:37 63.26808 28.04990 18028 ft 340 kts 186°
2026-05-05 16:37 63.24439 28.04985 17355 ft 343 kts 185°
2026-05-05 16:37 63.22054 28.05135 16900 ft 341 kts 183°
2026-05-05 16:38 63.19688 28.05553 16350 ft 343 kts 179°
2026-05-05 16:38 63.17308 28.06416 15520 ft 351 kts 176°
2026-05-05 16:38 63.14888 28.07062 14814 ft 350 kts 179°
2026-05-05 16:38 63.12437 28.07485 13868 ft 357 kts 181°
2026-05-05 16:39 63.09937 28.07728 12877 ft 362 kts 182°
2026-05-05 16:39 63.07458 28.07968 11955 ft 341 kts 181°
2026-05-05 16:39 63.05315 28.08286 11003 ft 303 kts 180°
2026-05-05 16:39 63.03156 28.08629 10153 ft 317 kts 180°
2026-05-05 16:40 63.00925 28.08920 9332 ft 326 kts 180°
2026-05-05 16:40 62.98641 28.09242 8473 ft 331 kts 180°
2026-05-05 16:40 62.96355 28.09649 7893 ft 326 kts 179°
2026-05-05 16:40 62.94337 28.10100 7096 ft 275 kts 179°
2026-05-05 16:41 62.92389 28.10453 6443 ft 286 kts 180°
2026-05-05 16:41 62.90374 28.10704 5843 ft 293 kts 181°
2026-05-05 16:41 62.88354 28.10328 5121 ft 293 kts 199°
2026-05-05 16:41 62.86702 28.08287 4374 ft 243 kts 227°
2026-05-05 16:42 62.85810 28.05128 3611 ft 252 kts 253°
2026-05-05 16:42 62.85398 28.01412 3232 ft 252 kts 263°
2026-05-05 16:42 62.85709 27.97703 3030 ft 247 kts 294°
2026-05-05 16:42 62.86711 27.94708 2847 ft 244 kts 309°
2026-05-05 16:43 62.87934 27.92175 2636 ft 243 kts 325°
2026-05-05 16:43 62.89420 27.90501 2545 ft 238 kts 331°
2026-05-05 16:43 62.90872 27.89069 2255 ft 223 kts 333°
2026-05-05 16:43 62.92184 27.87909 1921 ft 187 kts 334°
2026-05-05 16:44 62.93286 27.86911 1741 ft 165 kts 332°
2026-05-05 16:44 62.94289 27.85890 1489 ft 155 kts 328°
2026-05-05 16:44 62.95228 27.84870 1258 ft 149 kts 329°
2026-05-05 16:44 62.96147 27.83969 1091 ft 141 kts 330°
2026-05-05 16:45 62.97032 27.83143 897 ft 137 kts 331°
2026-05-05 16:45 62.97895 27.82407 720 ft 127 kts 333°
2026-05-05 16:45 62.98684 27.81697 563 ft 118 kts 329°
2026-05-05 16:45 62.99411 27.80987 403 ft 113 kts 330°
2026-05-05 16:46 63.00064 27.80404 312 ft 86 kts 326°
2026-05-05 16:46 63.00515 27.79956 309 ft 62 kts 336°
2026-05-05 16:46 63.00701 27.79757 317 ft 9 kts 287°
2026-05-05 16:46 63.00692 27.79638 317 ft 9 kts 249°
2026-05-05 16:47 63.00665 27.79496 318 ft 11 kts 248°
2026-05-05 16:47 63.00644 27.79385 318 ft 13 kts 243°
2026-05-05 16:47 63.00573 27.79229 316 ft 17 kts 216°
2026-05-05 16:47 63.00481 27.79082 316 ft 11 kts 214°
2026-05-05 16:48 63.00418 27.79095 316 ft 9 kts 161°
2026-05-05 16:48 63.00398 27.79096 316 ft 1 kts 233°
2026-05-05 16:48 63.00394 27.79067 316 ft 2 kts 250°
2026-05-05 16:48 63.00392 27.79056 316 ft 0 kts 250°